Time;durP1;ratioP1;P1;durP2;ratioP2;P2;SDS_P1;SDS_P2;PMS_P1;PMS_P2;Temp;Humidity;BMP_temperature;BMP_pressure;BME280_temperature;BME280_humidity;BME280_pressure;Samples;Min_cycle;Max_cycle;Signal;HPM_P1;HPM_P2
2023/11/03 00:00:51;;;;;;;169.73;154.30;;;;;;;;;;5052962;28;25090;-64
2023/11/03 00:03:17;;;;;;;176.15;160.35;;;;;;;;;;5046341;28;25056;-66
2023/11/03 00:05:43;;;;;;;174.98;158.88;;;;;;;;;;5040055;28;25057;-65
2023/11/03 00:08:09;;;;;;;171.20;155.27;;;;;;;;;;5045696;28;25073;-64
2023/11/03 00:10:37;;;;;;;176.77;159.48;;;;;;;;;;5042125;28;25065;-65
2023/11/03 00:13:03;;;;;;;173.82;156.98;;;;;;;;;;5045590;28;25125;-63
2023/11/03 00:15:29;;;;;;;175.63;158.95;;;;;;;;;;5044474;28;25056;-65
2023/11/03 00:17:55;;;;;;;168.85;152.80;;;;;;;;;;5044503;28;25087;-63
2023/11/03 00:20:22;;;;;;;168.90;152.55;;;;;;;;;;5039097;28;25139;-64
2023/11/03 00:22:48;;;;;;;169.55;153.45;;;;;;;;;;5041720;28;25068;-65
2023/11/03 00:25:14;;;;;;;170.13;154.07;;;;;;;;;;5042753;28;25100;-64
2023/11/03 00:27:42;;;;;;;170.20;154.30;;;;;;;;;;5043298;28;25094;-65
2023/11/03 00:30:08;;;;;;;173.98;157.25;;;;;;;;;;5039586;28;25152;-64
2023/11/03 00:32:35;;;;;;;158.30;142.88;;;;;;;;;;5042577;28;25085;-64
2023/11/03 00:35:01;;;;;;;157.82;142.68;;;;;;;;;;5041331;28;25076;-65
2023/11/03 00:37:27;;;;;;;159.43;144.13;;;;;;;;;;5037583;28;25053;-66
2023/11/03 00:39:53;;;;;;;153.45;139.25;;;;;;;;;;5040481;28;25047;-65
2023/11/03 00:42:19;;;;;;;170.45;154.55;;;;;;;;;;5040881;28;25112;-64
2023/11/03 00:44:45;;;;;;;166.85;150.80;;;;;;;;;;5043064;28;25072;-65
2023/11/03 00:47:11;;;;;;;156.48;142.05;;;;;;;;;;5043173;28;25072;-66
2023/11/03 00:49:37;;;;;;;160.20;145.63;;;;;;;;;;5042978;28;25073;-65
2023/11/03 00:52:07;;;;;;;163.55;148.65;;;;;;;;;;5043180;28;25145;-64
2023/11/03 00:54:33;;;;;;;164.93;149.68;;;;;;;;;;5041565;28;25128;-65
2023/11/03 00:57:00;;;;;;;159.98;145.27;;;;;;;;;;5042937;28;25059;-63
2023/11/03 00:59:26;;;;;;;166.70;151.00;;;;;;;;;;5041602;28;25058;-63
2023/11/03 01:01:52;;;;;;;170.93;154.60;;;;;;;;;;5043672;28;25084;-65
2023/11/03 01:04:18;;;;;;;172.60;156.45;;;;;;;;;;5038213;28;25069;-65
2023/11/03 01:06:44;;;;;;;176.77;160.27;;;;;;;;;;5045059;28;25057;-65
2023/11/03 01:09:10;;;;;;;176.75;159.98;;;;;;;;;;5038561;28;25159;-63
2023/11/03 01:11:40;;;;;;;186.05;169.07;;;;;;;;;;5043722;28;25043;-65
2023/11/03 01:14:06;;;;;;;185.18;167.77;;;;;;;;;;5046612;28;25097;-67
2023/11/03 01:16:33;;;;;;;186.90;169.60;;;;;;;;;;5043182;28;25166;-66
2023/11/03 01:19:04;;;;;;;183.95;166.95;;;;;;;;;;5030539;28;25073;-64
2023/11/03 01:21:30;;;;;;;194.15;175.77;;;;;;;;;;5015367;28;25127;-64
2023/11/03 01:23:56;;;;;;;198.68;180.68;;;;;;;;;;5020916;28;25063;-63
2023/11/03 01:26:25;;;;;;;197.20;179.43;;;;;;;;;;5024348;28;25055;-65
2023/11/03 01:28:50;;;;;;;196.90;178.70;;;;;;;;;;5024345;28;25071;-62
2023/11/03 01:31:17;;;;;;;187.63;170.13;;;;;;;;;;5025350;28;25050;-64
2023/11/03 01:33:44;;;;;;;187.93;170.73;;;;;;;;;;5024458;28;25068;-65
2023/11/03 01:36:11;;;;;;;189.25;171.68;;;;;;;;;;5029055;28;25133;-63
2023/11/03 01:38:38;;;;;;;184.65;167.52;;;;;;;;;;5029540;28;25087;-65
2023/11/03 01:41:05;;;;;;;181.20;164.70;;;;;;;;;;5027293;28;25090;-63
2023/11/03 01:43:33;;;;;;;186.63;169.25;;;;;;;;;;5060194;28;25055;-66
2023/11/03 01:45:59;;;;;;;182.18;165.48;;;;;;;;;;5045264;28;25115;-66
2023/11/03 01:48:26;;;;;;;190.57;173.02;;;;;;;;;;5027556;28;25067;-64
2023/11/03 01:50:53;;;;;;;185.85;168.27;;;;;;;;;;5014360;28;25083;-65
2023/11/03 01:53:19;;;;;;;195.57;177.25;;;;;;;;;;5013714;28;25074;-64
2023/11/03 01:55:46;;;;;;;183.73;166.20;;;;;;;;;;5018425;28;25110;-64
2023/11/03 01:58:14;;;;;;;183.07;165.68;;;;;;;;;;5035562;28;25132;-65
2023/11/03 02:00:40;;;;;;;192.05;173.73;;;;;;;;;;5037090;28;25066;-65
2023/11/03 02:03:06;;;;;;;193.20;175.50;;;;;;;;;;5037936;28;25094;-66
2023/11/03 02:05:32;;;;;;;185.23;168.20;;;;;;;;;;5028829;28;25096;-65
2023/11/03 02:07:58;;;;;;;181.23;164.38;;;;;;;;;;5016238;28;25059;-64
2023/11/03 02:10:24;;;;;;;183.45;166.35;;;;;;;;;;5023257;28;25081;-64
2023/11/03 02:12:50;;;;;;;188.85;171.85;;;;;;;;;;5020615;28;25073;-64
2023/11/03 02:15:16;;;;;;;191.57;173.80;;;;;;;;;;5017087;28;25099;-65
2023/11/03 02:17:42;;;;;;;197.95;180.10;;;;;;;;;;5020103;28;25082;-64
2023/11/03 02:20:09;;;;;;;187.73;170.32;;;;;;;;;;5018571;28;25083;-65
2023/11/03 02:22:35;;;;;;;200.15;181.77;;;;;;;;;;5041738;28;25048;-65
2023/11/03 02:25:02;;;;;;;187.30;169.48;;;;;;;;;;5049251;28;25097;-65
2023/11/03 02:27:28;;;;;;;195.75;177.52;;;;;;;;;;5044853;28;25068;-63
2023/11/03 02:29:55;;;;;;;195.68;177.35;;;;;;;;;;5043793;28;25097;-64
2023/11/03 02:32:22;;;;;;;198.55;180.15;;;;;;;;;;5027892;28;25084;-65
2023/11/03 02:34:48;;;;;;;194.30;176.57;;;;;;;;;;5040231;28;25081;-63
2023/11/03 02:37:14;;;;;;;196.65;178.75;;;;;;;;;;5042812;28;25066;-66
2023/11/03 02:39:40;;;;;;;188.48;170.90;;;;;;;;;;5042121;28;25146;-63
2023/11/03 02:42:06;;;;;;;189.23;171.70;;;;;;;;;;5045426;28;25088;-65
2023/11/03 02:44:32;;;;;;;193.80;176.38;;;;;;;;;;5046703;28;25150;-64
2023/11/03 02:46:58;;;;;;;193.55;175.73;;;;;;;;;;5047754;28;25063;-63
2023/11/03 02:49:24;;;;;;;194.90;176.90;;;;;;;;;;5046031;28;25068;-64
2023/11/03 02:51:51;;;;;;;182.07;164.88;;;;;;;;;;5042803;28;25062;-65
2023/11/03 02:54:17;;;;;;;197.50;178.48;;;;;;;;;;5039237;28;25112;-63
2023/11/03 02:56:43;;;;;;;198.60;179.20;;;;;;;;;;5043594;28;25103;-65
2023/11/03 02:59:08;;;;;;;201.35;182.00;;;;;;;;;;5043087;28;25160;-65
2023/11/03 03:01:40;;;;;;;191.75;173.45;;;;;;;;;;5045229;28;25055;-65
2023/11/03 03:04:06;;;;;;;194.60;175.80;;;;;;;;;;5040292;28;25079;-65
2023/11/03 03:06:33;;;;;;;197.27;178.60;;;;;;;;;;5042975;28;25180;-64
2023/11/03 03:08:59;;;;;;;189.85;171.43;;;;;;;;;;5045528;28;25054;-64
2023/11/03 03:11:25;;;;;;;196.02;176.27;;;;;;;;;;5042495;28;25099;-64
2023/11/03 03:13:50;;;;;;;190.32;171.75;;;;;;;;;;5037312;28;25088;-65
2023/11/03 03:16:17;;;;;;;192.70;173.77;;;;;;;;;;5043143;28;25082;-64
2023/11/03 03:18:43;;;;;;;190.95;172.88;;;;;;;;;;5042123;28;25159;-63
2023/11/03 03:21:09;;;;;;;199.25;180.48;;;;;;;;;;5038786;28;25100;-64
2023/11/03 03:23:34;;;;;;;204.32;184.55;;;;;;;;;;5045360;28;25078;-65
2023/11/03 03:26:00;;;;;;;200.02;180.73;;;;;;;;;;5040253;28;25118;-67
2023/11/03 03:28:26;;;;;;;196.98;177.88;;;;;;;;;;5025732;28;25083;-64
2023/11/03 03:30:52;;;;;;;202.38;182.25;;;;;;;;;;5034297;28;25063;-64
2023/11/03 03:33:18;;;;;;;200.07;180.20;;;;;;;;;;5036461;28;25051;-66
2023/11/03 03:35:44;;;;;;;208.93;188.27;;;;;;;;;;5036133;28;25048;-63
2023/11/03 03:38:10;;;;;;;212.65;192.25;;;;;;;;;;5025559;28;25111;-66
2023/11/03 03:40:36;;;;;;;213.07;192.77;;;;;;;;;;5040902;28;25055;-65
2023/11/03 03:43:02;;;;;;;214.77;194.05;;;;;;;;;;5045331;28;25058;-64
2023/11/03 03:45:29;;;;;;;213.73;193.75;;;;;;;;;;5042475;28;25099;-63
2023/11/03 03:47:55;;;;;;;207.73;188.23;;;;;;;;;;5044587;28;25053;-64
2023/11/03 03:50:21;;;;;;;202.98;183.95;;;;;;;;;;5043490;28;25141;-64
2023/11/03 03:52:47;;;;;;;211.35;191.52;;;;;;;;;;5036527;28;25125;-64
2023/11/03 03:55:13;;;;;;;199.13;180.32;;;;;;;;;;5039053;28;25073;-64
2023/11/03 03:57:39;;;;;;;203.48;183.75;;;;;;;;;;5039721;28;25055;-63
2023/11/03 04:00:07;;;;;;;197.48;178.25;;;;;;;;;;5035832;28;25206;-63
2023/11/03 04:02:33;;;;;;;191.63;173.13;;;;;;;;;;5044401;28;25140;-64
2023/11/03 04:04:59;;;;;;;189.70;171.63;;;;;;;;;;5037345;28;24968;-64
2023/11/03 04:07:25;;;;;;;193.10;174.48;;;;;;;;;;5040547;28;25066;-63
2023/11/03 04:09:51;;;;;;;192.25;173.00;;;;;;;;;;5039835;28;25129;-63
2023/11/03 04:12:17;;;;;;;188.25;169.85;;;;;;;;;;5043277;28;25056;-65
2023/11/03 04:14:43;;;;;;;178.43;160.73;;;;;;;;;;5043116;28;25102;-67
2023/11/03 04:17:09;;;;;;;180.38;163.15;;;;;;;;;;5039043;28;25061;-64
2023/11/03 04:19:35;;;;;;;174.63;158.15;;;;;;;;;;5043072;28;25103;-65
2023/11/03 04:22:01;;;;;;;178.80;161.48;;;;;;;;;;5042154;28;25133;-63
2023/11/03 04:24:27;;;;;;;170.77;154.65;;;;;;;;;;5044382;28;25064;-65
2023/11/03 04:26:54;;;;;;;172.45;156.23;;;;;;;;;;5046596;28;25144;-64
2023/11/03 04:29:20;;;;;;;172.02;156.25;;;;;;;;;;5044319;28;25062;-63
2023/11/03 04:31:46;;;;;;;168.23;152.10;;;;;;;;;;5042032;28;25078;-64
2023/11/03 04:34:12;;;;;;;168.80;152.82;;;;;;;;;;5041844;28;25084;-65
2023/11/03 04:36:38;;;;;;;167.65;151.55;;;;;;;;;;5042334;28;25102;-64
2023/11/03 04:39:05;;;;;;;169.55;153.77;;;;;;;;;;5033341;28;25068;-64
2023/11/03 04:41:31;;;;;;;167.30;151.18;;;;;;;;;;5035546;28;25075;-63
2023/11/03 04:43:57;;;;;;;162.57;147.02;;;;;;;;;;5024910;28;25049;-63
2023/11/03 04:46:23;;;;;;;169.20;153.18;;;;;;;;;;5027446;28;25117;-63
2023/11/03 04:48:50;;;;;;;164.40;148.73;;;;;;;;;;5035156;28;25074;-63
2023/11/03 04:51:16;;;;;;;175.82;159.23;;;;;;;;;;5038735;28;25071;-65
2023/11/03 04:53:43;;;;;;;166.63;150.65;;;;;;;;;;5042238;28;25055;-63
2023/11/03 04:56:09;;;;;;;177.50;160.30;;;;;;;;;;5036822;28;25137;-63
2023/11/03 04:58:35;;;;;;;176.90;159.65;;;;;;;;;;5042137;28;25062;-62
2023/11/03 05:01:01;;;;;;;178.60;161.32;;;;;;;;;;5042339;28;25091;-64
2023/11/03 05:03:27;;;;;;;176.23;159.63;;;;;;;;;;5047095;28;25073;-62
2023/11/03 05:05:53;;;;;;;176.57;159.20;;;;;;;;;;5042622;28;25050;-63
2023/11/03 05:08:19;;;;;;;175.23;157.95;;;;;;;;;;5041899;28;25081;-63
2023/11/03 05:10:45;;;;;;;176.30;159.23;;;;;;;;;;5039926;28;25097;-62
2023/11/03 05:13:11;;;;;;;178.32;161.13;;;;;;;;;;5041521;28;25060;-65
2023/11/03 05:15:39;;;;;;;181.20;163.60;;;;;;;;;;5044408;28;25078;-64
2023/11/03 05:18:05;;;;;;;176.95;160.20;;;;;;;;;;5041744;28;25066;-64
2023/11/03 05:20:31;;;;;;;177.80;160.30;;;;;;;;;;5038844;28;25127;-64
2023/11/03 05:22:57;;;;;;;165.80;149.40;;;;;;;;;;5048703;28;25098;-64
2023/11/03 05:25:23;;;;;;;170.80;153.77;;;;;;;;;;5044789;28;25069;-64
2023/11/03 05:27:49;;;;;;;162.07;146.02;;;;;;;;;;5042284;28;25066;-65
2023/11/03 05:30:15;;;;;;;160.35;144.25;;;;;;;;;;5043155;28;25101;-65
2023/11/03 05:32:41;;;;;;;163.85;147.65;;;;;;;;;;5045594;28;25056;-63
2023/11/03 05:35:08;;;;;;;159.80;143.77;;;;;;;;;;5046991;28;25062;-64
2023/11/03 05:37:34;;;;;;;153.40;137.95;;;;;;;;;;5029684;28;25106;-60
2023/11/03 05:40:00;;;;;;;156.88;141.52;;;;;;;;;;5024426;28;25071;-62
2023/11/03 05:42:26;;;;;;;153.00;138.25;;;;;;;;;;5023927;28;25129;-62
2023/11/03 05:44:52;;;;;;;151.80;136.40;;;;;;;;;;5032601;28;25084;-61
2023/11/03 05:47:18;;;;;;;156.60;140.52;;;;;;;;;;5044776;28;25074;-62
2023/11/03 05:49:44;;;;;;;152.00;137.05;;;;;;;;;;5046163;28;25130;-61
2023/11/03 05:52:10;;;;;;;158.93;143.15;;;;;;;;;;5040630;28;25084;-63
2023/11/03 05:54:36;;;;;;;158.13;141.98;;;;;;;;;;5033969;28;25060;-63
2023/11/03 05:57:02;;;;;;;153.95;138.15;;;;;;;;;;5036253;28;25054;-62
2023/11/03 05:59:28;;;;;;;164.32;147.60;;;;;;;;;;5044378;28;25088;-62
2023/11/03 06:01:54;;;;;;;162.60;145.75;;;;;;;;;;5052132;28;25113;-61
2023/11/03 06:04:19;;;;;;;166.88;149.63;;;;;;;;;;5043807;28;25068;-62
2023/11/03 06:06:48;;;;;;;164.57;147.65;;;;;;;;;;5052903;28;25063;-62
2023/11/03 06:09:14;;;;;;;167.07;149.80;;;;;;;;;;5044211;28;25072;-61
2023/11/03 06:11:40;;;;;;;167.23;150.73;;;;;;;;;;5041267;28;25148;-62
2023/11/03 06:14:06;;;;;;;158.13;141.27;;;;;;;;;;5040377;28;25060;-61
2023/11/03 06:16:34;;;;;;;157.02;140.63;;;;;;;;;;5042128;28;25097;-62
2023/11/03 06:19:01;;;;;;;158.20;142.10;;;;;;;;;;5047707;28;25140;-62
2023/11/03 06:21:28;;;;;;;156.82;141.23;;;;;;;;;;5037296;28;25145;-62
2023/11/03 06:23:55;;;;;;;153.80;138.02;;;;;;;;;;5041167;28;25057;-63
2023/11/03 06:26:21;;;;;;;162.40;145.80;;;;;;;;;;5039797;28;25098;-62
2023/11/03 06:28:47;;;;;;;163.00;146.18;;;;;;;;;;5042585;28;25148;-64
2023/11/03 06:31:13;;;;;;;170.85;153.35;;;;;;;;;;5043473;28;25102;-62
2023/11/03 06:33:39;;;;;;;166.45;149.45;;;;;;;;;;5037561;28;25132;-63
2023/11/03 06:36:05;;;;;;;163.35;146.20;;;;;;;;;;5034365;28;25083;-64
2023/11/03 06:38:31;;;;;;;161.50;145.52;;;;;;;;;;5040087;28;25143;-64
2023/11/03 06:41:00;;;;;;;168.20;151.82;;;;;;;;;;5046692;28;25081;-63
2023/11/03 06:43:26;;;;;;;158.52;142.00;;;;;;;;;;5046117;28;25065;-66
2023/11/03 06:45:52;;;;;;;164.32;147.77;;;;;;;;;;5046924;28;25075;-61
2023/11/03 06:48:17;;;;;;;167.70;151.15;;;;;;;;;;5044859;28;25087;-61
2023/11/03 06:50:43;;;;;;;163.23;146.82;;;;;;;;;;5043877;28;25063;-61
2023/11/03 06:53:09;;;;;;;159.23;143.60;;;;;;;;;;5047439;28;25045;-60
2023/11/03 06:55:35;;;;;;;159.13;143.82;;;;;;;;;;5065756;28;25051;-61
2023/11/03 06:58:01;;;;;;;167.77;152.30;;;;;;;;;;5051476;28;25074;-61
2023/11/03 07:00:28;;;;;;;173.65;158.77;;;;;;;;;;5051096;28;25081;-62
2023/11/03 07:02:54;;;;;;;171.48;155.73;;;;;;;;;;5041184;28;25058;-63
2023/11/03 07:05:24;;;;;;;170.90;155.63;;;;;;;;;;5020646;28;25095;-62
2023/11/03 07:07:50;;;;;;;166.70;151.60;;;;;;;;;;5049202;28;25106;-60
2023/11/03 07:10:16;;;;;;;170.90;155.63;;;;;;;;;;5043224;28;25110;-61
2023/11/03 07:12:43;;;;;;;171.45;155.95;;;;;;;;;;5041127;28;25071;-61
2023/11/03 07:15:11;;;;;;;169.30;153.30;;;;;;;;;;5045315;28;25060;-61
2023/11/03 07:17:37;;;;;;;163.57;148.93;;;;;;;;;;5044494;28;25043;-61
2023/11/03 07:20:05;;;;;;;169.43;154.55;;;;;;;;;;5049423;28;25061;-62
2023/11/03 07:22:32;;;;;;;158.63;144.70;;;;;;;;;;5038905;28;25137;-61
2023/11/03 07:24:58;;;;;;;159.00;144.93;;;;;;;;;;5044808;28;25059;-61
2023/11/03 07:27:24;;;;;;;157.77;143.73;;;;;;;;;;5044067;28;25131;-61
2023/11/03 07:29:50;;;;;;;158.40;144.00;;;;;;;;;;5047783;28;25127;-61
2023/11/03 07:32:16;;;;;;;149.82;136.27;;;;;;;;;;5040792;28;25124;-62
2023/11/03 07:34:42;;;;;;;153.13;138.55;;;;;;;;;;5043036;28;25115;-61
2023/11/03 07:37:08;;;;;;;163.50;149.00;;;;;;;;;;5026922;28;25088;-62
2023/11/03 07:39:34;;;;;;;160.07;145.80;;;;;;;;;;5027565;28;25102;-60
2023/11/03 07:42:00;;;;;;;155.18;141.38;;;;;;;;;;5045181;28;25085;-61
2023/11/03 07:44:26;;;;;;;159.60;144.95;;;;;;;;;;5044443;28;25075;-64
2023/11/03 07:46:52;;;;;;;156.40;141.95;;;;;;;;;;5044430;28;25057;-63
2023/11/03 07:49:18;;;;;;;161.52;146.85;;;;;;;;;;5040002;28;25079;-65
2023/11/03 07:51:47;;;;;;;159.00;144.38;;;;;;;;;;5042000;28;25067;-63
2023/11/03 07:54:15;;;;;;;158.82;144.25;;;;;;;;;;5044205;28;25052;-64
2023/11/03 07:56:42;;;;;;;153.18;139.43;;;;;;;;;;5044219;28;25083;-64
2023/11/03 07:59:08;;;;;;;156.57;142.45;;;;;;;;;;5043373;28;25066;-63
2023/11/03 08:01:34;;;;;;;148.10;135.02;;;;;;;;;;5044340;28;25067;-64
2023/11/03 08:04:00;;;;;;;157.00;143.25;;;;;;;;;;5044229;28;25107;-63
2023/11/03 08:06:27;;;;;;;156.60;143.05;;;;;;;;;;5045395;28;25078;-62
2023/11/03 08:08:53;;;;;;;158.93;144.93;;;;;;;;;;5045822;28;25099;-62
2023/11/03 08:11:19;;;;;;;164.07;150.13;;;;;;;;;;5044626;28;25068;-62
2023/11/03 08:13:45;;;;;;;159.75;145.75;;;;;;;;;;5051272;28;25068;-63
2023/11/03 08:16:11;;;;;;;151.80;137.52;;;;;;;;;;5045448;28;25077;-65
2023/11/03 08:18:37;;;;;;;156.25;142.10;;;;;;;;;;5044087;28;25079;-64
2023/11/03 08:21:03;;;;;;;146.57;133.85;;;;;;;;;;5044083;28;25145;-64
2023/11/03 08:23:31;;;;;;;144.15;130.32;;;;;;;;;;5044006;28;25089;-66
2023/11/03 08:25:58;;;;;;;149.18;135.15;;;;;;;;;;5045359;28;25071;-63
2023/11/03 08:28:23;;;;;;;140.10;127.50;;;;;;;;;;5044656;28;25063;-62
2023/11/03 08:30:50;;;;;;;137.05;125.30;;;;;;;;;;5041964;28;25116;-62
2023/11/03 08:33:16;;;;;;;132.43;120.70;;;;;;;;;;5038496;28;25057;-61
2023/11/03 08:35:42;;;;;;;131.63;120.47;;;;;;;;;;5044284;28;25062;-62
2023/11/03 08:38:08;;;;;;;135.48;123.30;;;;;;;;;;5047481;28;25097;-62
2023/11/03 08:40:34;;;;;;;134.13;122.55;;;;;;;;;;5047280;28;25073;-61
2023/11/03 08:43:01;;;;;;;137.20;125.03;;;;;;;;;;5049342;28;25064;-63
2023/11/03 08:45:27;;;;;;;130.52;118.80;;;;;;;;;;5054910;28;25076;-61
2023/11/03 08:47:53;;;;;;;130.43;118.57;;;;;;;;;;5048637;28;25110;-61
2023/11/03 08:50:19;;;;;;;129.25;117.82;;;;;;;;;;5043587;28;25069;-62
2023/11/03 08:52:45;;;;;;;130.55;119.15;;;;;;;;;;5045590;28;25063;-64
2023/11/03 08:55:12;;;;;;;123.90;113.20;;;;;;;;;;5047495;28;25081;-65
2023/11/03 08:57:39;;;;;;;129.63;118.05;;;;;;;;;;5047958;28;25052;-64
2023/11/03 09:00:11;;;;;;;129.80;118.03;;;;;;;;;;5043013;28;25046;-64
2023/11/03 09:02:37;;;;;;;129.15;117.82;;;;;;;;;;5048548;28;25130;-62
2023/11/03 09:05:04;;;;;;;126.03;114.63;;;;;;;;;;5048659;28;25108;-62
2023/11/03 09:07:31;;;;;;;128.73;117.28;;;;;;;;;;5053135;28;25066;-64
2023/11/03 09:09:57;;;;;;;132.70;120.82;;;;;;;;;;5053014;28;25169;-64
2023/11/03 09:12:23;;;;;;;128.68;117.32;;;;;;;;;;5049024;28;25075;-63
2023/11/03 09:14:49;;;;;;;122.50;111.55;;;;;;;;;;5049895;28;25092;-63
2023/11/03 09:17:15;;;;;;;124.72;113.82;;;;;;;;;;5047337;28;25086;-64
2023/11/03 09:19:41;;;;;;;126.95;115.50;;;;;;;;;;5044248;28;25075;-64
2023/11/03 09:22:07;;;;;;;136.23;124.20;;;;;;;;;;5048554;28;25103;-64
2023/11/03 09:24:33;;;;;;;125.80;115.00;;;;;;;;;;5047993;28;25070;-64
2023/11/03 09:26:59;;;;;;;131.70;119.93;;;;;;;;;;5047656;28;25062;-64
2023/11/03 09:29:25;;;;;;;138.45;126.60;;;;;;;;;;5044452;28;25069;-64
2023/11/03 09:31:53;;;;;;;136.40;123.97;;;;;;;;;;5038975;28;25070;-63
2023/11/03 09:34:19;;;;;;;143.30;130.27;;;;;;;;;;5042957;28;25055;-64
2023/11/03 09:36:45;;;;;;;144.02;131.50;;;;;;;;;;5024745;28;25072;-62
2023/11/03 09:39:11;;;;;;;140.45;128.50;;;;;;;;;;5027737;28;25059;-63
2023/11/03 09:41:49;;;;;;;145.02;132.32;;;;;;;;;;5034680;28;25073;-63
2023/11/03 09:44:15;;;;;;;145.63;132.40;;;;;;;;;;5044078;28;25142;-63
2023/11/03 09:46:41;;;;;;;152.10;138.32;;;;;;;;;;5030938;28;25162;-63
2023/11/03 09:49:07;;;;;;;150.90;138.10;;;;;;;;;;5033024;28;25081;-65
2023/11/03 09:51:34;;;;;;;145.38;132.48;;;;;;;;;;5044363;28;25082;-65
2023/11/03 09:54:03;;;;;;;138.30;126.25;;;;;;;;;;5043335;28;25077;-66
2023/11/03 09:56:30;;;;;;;137.27;125.00;;;;;;;;;;5042139;28;25054;-65
2023/11/03 09:58:56;;;;;;;136.50;123.93;;;;;;;;;;5040741;28;25052;-65
2023/11/03 10:01:23;;;;;;;139.68;127.25;;;;;;;;;;5039473;28;25077;-67
2023/11/03 10:03:49;;;;;;;137.63;125.68;;;;;;;;;;5043154;28;25074;-64
2023/11/03 10:06:15;;;;;;;134.20;122.50;;;;;;;;;;5046505;28;25137;-64
2023/11/03 10:08:44;;;;;;;132.80;121.28;;;;;;;;;;5042315;28;25072;-64
2023/11/03 10:11:10;;;;;;;134.27;123.32;;;;;;;;;;5042692;28;25092;-63
2023/11/03 10:13:37;;;;;;;131.27;120.10;;;;;;;;;;5043303;28;25145;-64
2023/11/03 10:16:05;;;;;;;133.48;122.45;;;;;;;;;;5045771;28;25046;-64
2023/11/03 10:18:33;;;;;;;127.13;116.53;;;;;;;;;;5040115;28;25016;-63
2023/11/03 10:20:59;;;;;;;127.65;117.15;;;;;;;;;;5039658;28;25076;-63
2023/11/03 10:23:25;;;;;;;125.65;115.82;;;;;;;;;;5034447;28;25072;-63
2023/11/03 10:25:52;;;;;;;131.40;121.30;;;;;;;;;;5043287;28;25146;-63
2023/11/03 10:28:19;;;;;;;129.40;119.00;;;;;;;;;;5041911;28;25079;-64
2023/11/03 10:30:53;;;;;;;127.30;116.70;;;;;;;;;;5037176;28;25067;-64
2023/11/03 10:33:20;;;;;;;121.22;111.28;;;;;;;;;;5038517;28;25191;-65
2023/11/03 10:35:46;;;;;;;126.18;115.60;;;;;;;;;;5038833;28;25105;-64
2023/11/03 10:38:12;;;;;;;118.18;108.38;;;;;;;;;;5042797;28;25096;-65
2023/11/03 10:40:38;;;;;;;118.65;109.32;;;;;;;;;;5043227;28;25071;-63
2023/11/03 10:43:07;;;;;;;107.68;99.45;;;;;;;;;;5045537;28;25089;-64
2023/11/03 10:45:36;;;;;;;103.15;95.32;;;;;;;;;;5043064;28;25164;-63
2023/11/03 10:48:05;;;;;;;93.72;86.80;;;;;;;;;;5039085;28;25067;-63
2023/11/03 10:50:35;;;;;;;92.97;85.97;;;;;;;;;;5040904;28;25060;-64
2023/11/03 10:53:39;;;;;;;96.57;89.35;;;;;;;;;;5041819;28;25094;-63
2023/11/03 10:56:05;;;;;;;92.10;84.60;;;;;;;;;;5036503;28;25076;-64
2023/11/03 10:58:32;;;;;;;90.30;82.57;;;;;;;;;;5018969;28;25070;-63
2023/11/03 11:00:58;;;;;;;82.88;76.53;;;;;;;;;;5023373;28;25102;-63
2023/11/03 11:03:54;;;;;;;73.57;67.18;;;;;;;;;;5026304;28;25096;-63
2023/11/03 11:06:22;;;;;;;65.75;61.05;;;;;;;;;;5054495;28;25090;-62
2023/11/03 11:08:51;;;;;;;64.68;59.67;;;;;;;;;;5044521;28;25139;-63
2023/11/03 11:11:17;;;;;;;56.60;52.53;;;;;;;;;;5045277;28;25152;-62
2023/11/03 11:13:43;;;;;;;49.63;45.72;;;;;;;;;;5045322;28;25174;-62
2023/11/03 11:16:11;;;;;;;49.13;45.10;;;;;;;;;;5044675;28;25059;-61
2023/11/03 11:18:54;;;;;;;50.30;46.05;;;;;;;;;;5044715;28;25112;-61
2023/11/03 11:21:27;;;;;;;28.17;24.55;;;;;;;;;;5027418;28;25044;-62
2023/11/03 11:23:55;;;;;;;32.17;29.17;;;;;;;;;;5039140;28;25065;-63
2023/11/03 11:26:21;;;;;;;29.75;25.85;;;;;;;;;;5046753;28;25129;-63
2023/11/03 11:28:48;;;;;;;31.13;28.60;;;;;;;;;;5043176;28;25070;-62
2023/11/03 11:31:27;;;;;;;26.92;24.13;;;;;;;;;;5046122;28;25068;-63
2023/11/03 11:34:13;;;;;;;15.52;13.15;;;;;;;;;;5041717;28;25080;-63
2023/11/03 11:36:39;;;;;;;22.00;14.02;;;;;;;;;;5043616;28;25149;-64
2023/11/03 11:39:10;;;;;;;22.63;8.70;;;;;;;;;;5037392;28;25083;-64
2023/11/03 11:41:40;;;;;;;17.75;11.38;;;;;;;;;;5034933;28;25069;-62
2023/11/03 11:44:06;;;;;;;17.17;6.38;;;;;;;;;;5042437;28;25172;-63
2023/11/03 11:46:32;;;;;;;14.93;7.50;;;;;;;;;;5042245;28;25050;-62
2023/11/03 11:49:01;;;;;;;19.75;7.65;;;;;;;;;;5043938;28;25064;-62
2023/11/03 11:51:27;;;;;;;22.02;7.22;;;;;;;;;;5041901;28;25136;-62
2023/11/03 11:53:58;;;;;;;17.10;7.72;;;;;;;;;;5042613;28;25066;-63
2023/11/03 11:56:24;;;;;;;18.58;5.90;;;;;;;;;;5039847;28;25142;-63
2023/11/03 11:58:52;;;;;;;25.17;4.75;;;;;;;;;;5043179;28;25137;-61
2023/11/03 12:01:18;;;;;;;22.65;6.90;;;;;;;;;;5039322;28;25049;-61
2023/11/03 12:03:44;;;;;;;18.25;7.18;;;;;;;;;;5041611;28;25085;-61
2023/11/03 12:06:10;;;;;;;18.70;6.50;;;;;;;;;;5038258;28;25160;-62
2023/11/03 12:08:38;;;;;;;21.88;6.43;;;;;;;;;;5043981;28;25108;-64
2023/11/03 12:11:06;;;;;;;17.80;4.55;;;;;;;;;;5040464;28;25092;-63
2023/11/03 12:13:32;;;;;;;17.90;4.18;;;;;;;;;;5039132;28;25063;-63
2023/11/03 12:15:59;;;;;;;15.10;4.10;;;;;;;;;;5040759;28;24940;-62
2023/11/03 12:18:25;;;;;;;13.55;3.50;;;;;;;;;;5041363;28;25057;-62
2023/11/03 12:21:04;;;;;;;15.52;4.07;;;;;;;;;;5040207;28;25061;-62
2023/11/03 12:23:30;;;;;;;18.70;4.35;;;;;;;;;;5040949;28;25058;-62
2023/11/03 12:25:58;;;;;;;17.23;3.92;;;;;;;;;;5043286;28;25142;-62
2023/11/03 12:28:25;;;;;;;13.77;3.72;;;;;;;;;;5040993;28;25073;-62
2023/11/03 12:30:52;;;;;;;14.30;3.53;;;;;;;;;;5040779;28;25061;-63
2023/11/03 12:33:19;;;;;;;13.23;3.33;;;;;;;;;;5044196;28;25060;-67
2023/11/03 12:35:45;;;;;;;12.55;3.47;;;;;;;;;;5040443;28;25067;-62
2023/11/03 12:38:11;;;;;;;10.32;3.30;;;;;;;;;;5043570;28;25146;-63
2023/11/03 12:40:37;;;;;;;13.25;3.42;;;;;;;;;;5039279;28;25063;-64
2023/11/03 12:43:12;;;;;;;17.65;3.70;;;;;;;;;;5042770;28;25057;-62
2023/11/03 12:45:39;;;;;;;12.30;3.95;;;;;;;;;;5042685;28;25066;-63
2023/11/03 12:48:18;;;;;;;13.60;3.58;;;;;;;;;;5043329;28;25079;-63
2023/11/03 12:50:51;;;;;;;19.67;3.80;;;;;;;;;;5043147;28;25118;-64
2023/11/03 12:53:17;;;;;;;13.95;3.60;;;;;;;;;;5042412;28;25061;-63
2023/11/03 12:55:46;;;;;;;16.20;3.13;;;;;;;;;;5040882;28;25061;-63
2023/11/03 12:58:17;;;;;;;11.98;2.97;;;;;;;;;;5040973;28;25057;-65
2023/11/03 13:00:48;;;;;;;12.10;3.00;;;;;;;;;;5041165;28;25104;-63
2023/11/03 13:03:15;;;;;;;17.60;4.68;;;;;;;;;;5043237;28;25056;-65
2023/11/03 13:05:46;;;;;;;12.93;3.83;;;;;;;;;;5042906;28;25069;-64
2023/11/03 13:08:13;;;;;;;11.63;2.63;;;;;;;;;;5042279;28;25131;-64
2023/11/03 13:10:40;;;;;;;11.43;2.83;;;;;;;;;;5041580;28;25057;-64
2023/11/03 13:13:09;;;;;;;11.00;2.83;;;;;;;;;;5043430;28;25077;-65
2023/11/03 13:15:35;;;;;;;16.20;3.58;;;;;;;;;;5042534;28;25059;-63
2023/11/03 13:18:01;;;;;;;9.13;2.70;;;;;;;;;;5041265;28;25068;-63
2023/11/03 13:20:27;;;;;;;17.85;3.25;;;;;;;;;;5027237;28;25065;-66
2023/11/03 13:22:58;;;;;;;9.45;2.85;;;;;;;;;;5038324;28;25104;-64
2023/11/03 13:25:25;;;;;;;11.50;2.83;;;;;;;;;;5044283;28;25065;-63
2023/11/03 13:27:51;;;;;;;10.30;2.88;;;;;;;;;;5045926;28;25078;-63
2023/11/03 13:30:18;;;;;;;10.50;2.75;;;;;;;;;;5046491;28;25161;-63
2023/11/03 13:32:49;;;;;;;15.65;2.58;;;;;;;;;;5038303;28;25086;-63
2023/11/03 13:35:15;;;;;;;11.50;2.55;;;;;;;;;;5041932;28;25142;-63
2023/11/03 13:37:43;;;;;;;10.23;3.03;;;;;;;;;;5044975;28;25074;-64
2023/11/03 13:40:09;;;;;;;11.35;3.33;;;;;;;;;;5045477;28;25066;-64
2023/11/03 13:42:35;;;;;;;8.30;2.42;;;;;;;;;;5047334;28;25159;-64
2023/11/03 13:45:01;;;;;;;8.05;1.98;;;;;;;;;;5047725;28;25135;-62
2023/11/03 13:47:27;;;;;;;7.55;2.40;;;;;;;;;;5044916;28;25096;-62
2023/11/03 13:49:54;;;;;;;12.90;2.70;;;;;;;;;;5047966;28;25073;-63
2023/11/03 13:52:20;;;;;;;12.88;3.00;;;;;;;;;;5047971;28;25151;-62
2023/11/03 13:54:47;;;;;;;12.45;3.22;;;;;;;;;;5047995;28;25076;-62
2023/11/03 13:57:13;;;;;;;8.25;2.60;;;;;;;;;;5046834;28;25062;-63
2023/11/03 13:59:40;;;;;;;13.70;2.67;;;;;;;;;;5047212;28;25139;-64